Terminal Aerodrome Forecast
Issued by NWS Charleston, SC

Home | Current Version | Previous Version | Text Only | Print | Product List | Glossary On
Versions: 1 2 3 4 5 6 7 8 9 10 11 12 13 14 15 16 17 18 19
000
FTUS42 KCHS 232300
TAFCHS
TAF
KCHS 232327Z 2400/2424 VRB05KT P6SM SKC
     FM240300 04009KT P6SM SKC
     FM241500 07010G17KT P6SM FEW040
     FM242000 13013G19KT P6SM SCT035=

USA.gov is the U.S. government's official web portal to all federal, state and local government web resources and services.